Terminal Aerodrome Forecast
Issued by NWS Wilmington, OH

Current Version | Previous Version | Graphics & Text | Print | Product List | Glossary On
Versions: 1 2 3 4 5 6 7 8 9 10 11 12 13 14 15 16 17 18
000
FTUS41 KILN 260500
TAFCMH
TAF
KCMH 260530Z 2606/2706 04007KT P6SM OVC100
     FM261100 05010KT P6SM OVC050
     FM261500 01012KT 5SM -SN OVC020
     FM261800 01012KT 4SM -SN OVC015
     FM262100 36012KT P6SM VCSH OVC018
     FM270300 35009KT P6SM SCT015 OVC030=

USA.gov is the U.S. government's official web portal to all federal, state and local government web resources and services.